CheckWX is a tool to help pilots better visualize weather data.  It is not intended as a substitute for an official pre-flight weather briefing.

12:00:48 UTC

ENOL METAR
Ørland Airport
Ørland, Norway
Current

41 mins ago

ENOL 251120Z 29019G29KT 9999 VCSH FEW020 BKN050 03/M02 Q1016 NOSIG
Observed
Mar-25 @ 11:20 UTC
Wind
  • 290° at 19 KTS
  • Gusting to 29 KTS
Visibility
10,000+ meters
Flight Rules
VFR
Cloud Levels
  • Few at 2,000' AGL
  • Broken at 5,000' AGL
Temperature
C / 37°F
Dewpoint
-2°C / 28°F
Humidity
70%
Altimeter
30" Hg
Pressure
1015.92 hPa
Previous

1 hour ago

ENOL 251050Z 29018KT 9999 VCSH FEW020 BKN050 03/M02 Q1016 NOSIG
Observed
Mar-25 @ 10:50 UTC
Wind
  • 290° at 18 KTS
Visibility
10,000+ meters
Flight Rules
VFR
Cloud Levels
  • Few at 2,000' AGL
  • Broken at 5,000' AGL
Temperature
C / 37°F
Dewpoint
-2°C / 28°F
Humidity
70%
Altimeter
30" Hg
Pressure
1015.92 hPa
Previous

2 hours ago

ENOL 251020Z 25014KT 9999 FEW030 BKN050 03/M03 Q1016 NOSIG
Observed
Mar-25 @ 10:20 UTC
Wind
  • 250° at 14 KTS
Visibility
10,000+ meters
Flight Rules
VFR
Cloud Levels
  • Few at 3,000' AGL
  • Broken at 5,000' AGL
Temperature
C / 37°F
Dewpoint
-3°C / 27°F
Humidity
65%
Altimeter
30" Hg
Pressure
1015.92 hPa